createdAt,value
2022-11-19T00:02:00.758Z,100049.28
2022-11-19T00:07:23.104Z,100050.47
2022-11-19T00:12:57.555Z,100030.75
2022-11-19T00:18:19.647Z,100067.66
2022-11-19T00:23:41.707Z,100044.31
2022-11-19T00:29:04.348Z,100068.69
2022-11-19T00:34:26.295Z,100082.28
2022-11-19T00:39:48.235Z,100103.91
2022-11-19T00:45:12.767Z,100114.84
2022-11-19T00:50:34.788Z,100116.25
2022-11-19T00:56:00.267Z,100124.19
2022-11-19T01:01:25.141Z,100107.50
2022-11-19T01:06:47.008Z,100135.91
2022-11-19T01:12:08.844Z,100129.00
2022-11-19T01:17:30.926Z,100135.47
2022-11-19T01:22:53.006Z,100152.53
2022-11-19T01:28:15.526Z,100163.09
2022-11-19T01:33:38.326Z,100153.31
2022-11-19T01:39:02.536Z,100166.66
2022-11-19T01:44:58.536Z,100190.16
2022-11-19T01:50:26.335Z,100199.44
2022-11-19T01:55:53.149Z,100189.81
2022-11-19T02:01:18.297Z,100208.50
2022-11-19T02:06:45.327Z,100215.19
2022-11-19T02:12:36.668Z,100218.78
2022-11-19T02:18:38.817Z,100233.44
2022-11-19T02:24:17.687Z,100252.06
2022-11-19T02:29:58.832Z,100270.75
2022-11-19T02:35:47.636Z,100255.22
2022-11-19T02:41:36.680Z,100278.16
2022-11-19T02:47:02.007Z,100284.34
2022-11-19T02:52:24.256Z,100276.97
2022-11-19T02:57:59.738Z,100292.78
2022-11-19T03:03:41.448Z,100289.88
2022-11-19T03:09:03.647Z,100290.66
2022-11-19T03:14:49.285Z,100330.50
2022-11-19T03:20:23.676Z,100330.63
2022-11-19T03:25:51.927Z,100348.41
2022-11-19T03:31:15.847Z,100355.13
2022-11-19T03:36:41.197Z,100375.00
2022-11-19T03:42:13.435Z,100359.69
2022-11-19T03:47:45.132Z,100377.75
2022-11-19T03:53:14.187Z,100381.19
2022-11-19T03:58:43.627Z,100373.84
2022-11-19T04:04:27.411Z,100367.06
2022-11-19T04:09:50.247Z,100368.44
2022-11-19T04:15:14.027Z,100375.31
2022-11-19T04:20:37.769Z,100384.31
2022-11-19T04:26:00.467Z,100384.44
2022-11-19T04:31:22.978Z,100412.28
2022-11-19T04:36:45.367Z,100399.03
2022-11-19T04:42:07.787Z,100438.47
2022-11-19T04:47:30.247Z,100430.41
2022-11-19T04:52:51.971Z,100439.94
2022-11-19T04:58:14.007Z,100441.50
2022-11-19T05:03:36.289Z,100454.38
2022-11-19T05:08:58.015Z,100475.50
2022-11-19T05:14:20.089Z,100438.41
2022-11-19T05:19:42.216Z,100468.16
2022-11-19T05:25:04.687Z,100464.97
2022-11-19T05:30:28.508Z,100452.53
2022-11-19T05:35:50.468Z,100503.34
2022-11-19T05:41:12.369Z,100497.66
2022-11-19T05:46:34.687Z,100488.84
2022-11-19T05:51:57.416Z,100508.53
2022-11-19T05:57:37.116Z,100477.69
2022-11-19T06:02:59.226Z,100510.44
2022-11-19T06:08:21.095Z,100525.59
2022-11-19T06:13:43.096Z,100520.94
2022-11-19T06:19:05.034Z,100546.19
2022-11-19T06:24:27.427Z,100546.09
2022-11-19T06:29:55.034Z,100547.06
2022-11-19T06:35:18.715Z,100524.22
2022-11-19T06:40:40.895Z,100494.09
2022-11-19T06:46:02.829Z,100534.84
2022-11-19T06:51:25.300Z,100523.44
2022-11-19T06:56:47.147Z,100522.47
2022-11-19T07:02:11.848Z,100537.75
2022-11-19T07:07:35.487Z,100540.50
2022-11-19T07:12:57.775Z,100521.91
2022-11-19T07:18:19.968Z,100567.72
2022-11-19T07:23:42.108Z,100559.22
2022-11-19T07:29:07.355Z,100538.94
2022-11-19T07:34:29.696Z,100562.53
2022-11-19T07:39:51.833Z,100581.31
2022-11-19T07:45:13.974Z,100612.13
2022-11-19T07:50:35.987Z,100601.06
2022-11-19T07:56:01.309Z,100608.84
2022-11-19T08:01:24.822Z,100614.97
2022-11-19T08:06:46.928Z,100644.66
2022-11-19T08:12:09.188Z,100637.31
2022-11-19T08:17:50.084Z,100639.00
2022-11-19T08:23:12.907Z,100619.91
2022-11-19T08:28:34.911Z,100655.97
2022-11-19T08:33:57.067Z,100672.06
2022-11-19T08:39:18.927Z,100661.72
2022-11-19T08:44:40.987Z,100670.00
2022-11-19T08:50:02.907Z,100655.28
2022-11-19T08:55:26.364Z,100698.16
2022-11-19T09:00:45.618Z,100674.03
2022-11-19T09:06:08.055Z,100669.56
2022-11-19T09:11:29.996Z,100677.91
2022-11-19T09:16:52.608Z,100685.09
2022-11-19T09:22:14.747Z,100680.34
2022-11-19T09:27:37.887Z,100685.47
2022-11-19T09:33:00.954Z,100700.75
2022-11-19T09:38:22.789Z,100712.78
2022-11-19T09:44:07.968Z,100696.59
2022-11-19T09:49:48.154Z,100703.06
2022-11-19T09:55:17.586Z,100692.59
2022-11-19T10:00:39.656Z,100726.97
2022-11-19T10:06:33.495Z,100724.03
2022-11-19T10:12:25.906Z,100738.56
2022-11-19T10:18:21.655Z,100752.31
2022-11-19T10:23:55.215Z,100756.94
2022-11-19T10:29:24.037Z,100744.59
2022-11-19T10:34:46.995Z,100754.47
2022-11-19T10:40:21.587Z,100751.38
2022-11-19T10:45:43.127Z,100737.75
2022-11-19T10:51:32.486Z,100745.75
2022-11-19T10:56:56.786Z,100745.66
2022-11-19T11:02:34.507Z,100754.94
2022-11-19T11:07:59.046Z,100767.81
2022-11-19T11:13:59.646Z,100749.56
2022-11-19T11:19:23.501Z,100755.63
2022-11-19T11:24:45.688Z,100758.22
2022-11-19T11:30:14.634Z,100766.94
2022-11-19T11:35:39.071Z,100757.66
2022-11-19T11:46:55.470Z,100774.91
2022-11-19T11:52:30.726Z,100773.69
2022-11-19T11:58:06.056Z,100767.84
2022-11-19T12:03:54.186Z,100760.66
2022-11-19T12:09:29.476Z,100756.47
2022-11-19T12:15:41.674Z,100763.97
2022-11-19T12:21:54.218Z,100751.91
2022-11-19T12:28:02.370Z,100777.38
2022-11-19T12:33:55.265Z,100784.63
2022-11-19T12:40:06.082Z,100763.78
2022-11-19T12:46:06.016Z,100755.69
2022-11-19T12:51:35.898Z,100777.53
2022-11-19T12:57:30.215Z,100779.28
2022-11-19T13:03:15.815Z,100778.81
2022-11-19T13:08:44.396Z,100778.03
2022-11-19T13:14:15.687Z,100754.44
2022-11-19T13:19:39.994Z,100779.00
2022-11-19T13:25:07.262Z,100772.31
2022-11-19T13:30:32.742Z,100788.88
2022-11-19T13:36:16.422Z,100785.44
2022-11-19T13:42:07.567Z,100756.09
2022-11-19T13:47:46.495Z,100803.00
2022-11-19T13:53:23.327Z,100794.16
2022-11-19T13:58:52.557Z,100801.03
2022-11-19T14:04:40.755Z,100784.81
2022-11-19T14:10:19.548Z,100786.59
2022-11-19T14:16:11.169Z,100782.69
2022-11-19T14:21:52.847Z,100770.88
2022-11-19T14:27:21.584Z,100765.94
2022-11-19T14:32:51.886Z,100749.41
2022-11-19T14:38:34.758Z,100748.22
2022-11-19T14:44:32.647Z,100744.97
2022-11-19T14:49:55.587Z,100741.06
2022-11-19T14:55:25.338Z,100694.50
2022-11-19T15:00:48.128Z,100695.16
2022-11-19T15:06:19.329Z,100698.78
2022-11-19T15:12:00.949Z,100705.00
2022-11-19T15:17:23.527Z,100661.22
2022-11-19T15:23:22.997Z,100717.63
2022-11-19T15:29:06.716Z,100721.06
2022-11-19T15:34:48.641Z,100734.03
2022-11-19T15:40:22.017Z,100696.50
2022-11-19T15:45:49.578Z,100717.97
2022-11-19T15:51:15.267Z,100718.78
2022-11-19T15:56:39.855Z,100714.34
2022-11-19T16:02:05.264Z,100724.34
2022-11-19T16:07:30.380Z,100688.28
2022-11-19T16:13:22.055Z,100729.88
2022-11-19T16:18:52.629Z,100687.97
2022-11-19T16:24:37.009Z,100711.56
2022-11-19T16:29:59.446Z,100708.97
2022-11-19T16:35:33.378Z,100714.19
2022-11-19T16:41:16.995Z,100700.78
2022-11-19T16:46:45.149Z,100694.69
2022-11-19T16:52:08.348Z,100711.06
2022-11-19T16:57:31.194Z,100694.34
2022-11-19T17:02:53.495Z,100690.59
2022-11-19T17:08:37.355Z,100697.81
2022-11-19T17:13:58.994Z,100667.97
2022-11-19T17:19:36.548Z,100666.00
2022-11-19T17:25:04.337Z,100688.44
2022-11-19T17:30:35.206Z,100654.16
2022-11-19T17:35:57.407Z,100696.97
2022-11-19T17:41:45.194Z,100666.63
2022-11-19T17:47:23.179Z,100701.88
2022-11-19T17:52:46.777Z,100691.41
2022-11-19T17:58:09.527Z,100680.75
2022-11-19T18:03:31.437Z,100692.22
2022-11-19T18:08:53.316Z,100713.84
2022-11-19T18:14:15.707Z,100716.31
2022-11-19T18:19:37.765Z,100713.22
2022-11-19T18:25:02.325Z,100726.00
2022-11-19T18:30:25.341Z,100703.38
2022-11-19T18:35:47.557Z,100728.28
2022-11-19T18:41:14.576Z,100730.91
2022-11-19T18:46:36.884Z,100715.50
2022-11-19T18:51:59.190Z,100705.34
2022-11-19T18:57:21.385Z,100707.47
2022-11-19T19:03:13.138Z,100671.72
2022-11-19T19:08:35.955Z,100663.84
2022-11-19T19:14:05.595Z,100662.22
2022-11-19T19:19:30.947Z,100649.28
2022-11-19T19:24:58.454Z,100650.44
2022-11-19T19:30:21.664Z,100624.69
2022-11-19T19:35:44.103Z,100653.53
2022-11-19T19:41:08.417Z,100677.63
2022-11-19T19:46:30.546Z,100669.78
2022-11-19T19:51:54.074Z,100687.97
2022-11-19T19:57:19.880Z,100690.25
2022-11-19T20:02:41.797Z,100659.13
2022-11-19T20:08:03.860Z,100649.44
2022-11-19T20:13:29.329Z,100679.75
2022-11-19T20:18:52.667Z,100683.03
2022-11-19T20:24:14.427Z,100673.06
2022-11-19T20:29:46.075Z,100622.25
2022-11-19T20:35:11.708Z,100618.81
2022-11-19T20:40:35.205Z,100626.66
2022-11-19T20:46:10.354Z,100614.53
2022-11-19T20:51:33.467Z,100591.13
2022-11-19T20:56:59.506Z,100603.72
2022-11-19T21:02:24.536Z,100594.06
2022-11-19T21:07:46.987Z,100583.59
2022-11-19T21:13:11.055Z,100577.53
2022-11-19T21:18:36.609Z,100570.97
2022-11-19T21:23:59.195Z,100616.03
2022-11-19T21:42:58.846Z,100612.56
2022-11-19T21:48:34.886Z,100542.69
2022-11-19T21:54:27.634Z,100609.50
2022-11-19T22:00:17.127Z,100554.34
2022-11-19T22:11:55.914Z,100599.25
2022-11-19T22:17:45.913Z,100532.25
2022-11-19T22:23:20.131Z,100526.88
2022-11-19T22:29:04.215Z,100528.78
2022-11-19T22:34:56.436Z,100506.19
2022-11-19T22:40:21.107Z,100538.31
2022-11-19T22:45:52.767Z,100517.69
2022-11-19T22:51:42.714Z,100534.25
2022-11-19T22:57:06.386Z,100508.38
2022-11-19T23:02:30.146Z,100512.47
2022-11-19T23:07:52.796Z,100521.81
2022-11-19T23:13:34.222Z,100577.19
2022-11-19T23:19:00.094Z,100514.63
2022-11-19T23:24:23.197Z,100564.91
2022-11-19T23:29:47.948Z,100531.50
2022-11-19T23:35:16.878Z,100565.41
2022-11-19T23:40:46.517Z,100502.84
2022-11-19T23:46:20.754Z,100520.03
2022-11-19T23:51:50.755Z,100505.81
2022-11-19T23:57:23.525Z,100525.13
